Yakutat, Alaska
Current Conditions -  °F | °C
As of 8:53 AM on Friday 24 Oct 2014 (Local Time) from PAYA Reporting Station
Scattered Clouds Scattered Clouds  
Wind Chill: 32°   Ceiling: Unl
Heat Index: 36°   Visibility: 10mi
Dew Point: 35°   Wind: 5mph
Humidity: 97%   Direction: 90°E
Pressure: 29.8"   Gusts: NA
Location:  59.54°N, 139.73°W
Report Text: PAYA 241653Z 09004KT 10SM FEW040 SCT130 02/02 A2980 RMK SLP093 T00220017 VIA AUTODIAL
Loading
Personal Weather Stations






























Interactive Weather Map
Tropical Storm Tracking
New forecast layout! Learn more

10-Day Weather Forecast

Advertisements
Track Severe Weather on mobile